Time;durP1;ratioP1;P1;durP2;ratioP2;P2;SDS_P1;SDS_P2;PMS_P1;PMS_P2;Temp;Humidity;BMP_temperature;BMP_pressure;BME280_temperature;BME280_humidity;BME280_pressure;Samples;Min_cycle;Max_cycle;Signal;HPM_P1;HPM_P2
2022/09/28 00:01:52;;;;;;;2.45;0.98;;;;;;;;;;4998617;28;20054;-55
2022/09/28 00:04:20;;;;;;;2.70;0.98;;;;;;;;;;4997984;28;20054;-53
2022/09/28 00:06:49;;;;;;;1.90;0.90;;;;;;;;;;5000332;28;20061;-55
2022/09/28 00:09:17;;;;;;;2.03;1.10;;;;;;;;;;4999313;28;20462;-54
2022/09/28 00:11:44;;;;;;;2.60;1.52;;;;;;;;;;5008967;28;20101;-55
2022/09/28 00:14:12;;;;;;;2.20;1.20;;;;;;;;;;5011850;28;20446;-54
2022/09/28 00:16:39;;;;;;;2.60;1.17;;;;;;;;;;5012257;28;20371;-54
2022/09/28 00:19:07;;;;;;;2.72;1.10;;;;;;;;;;5012519;28;20583;-55
2022/09/28 00:21:38;;;;;;;2.50;1.08;;;;;;;;;;5010189;28;20054;-55
2022/09/28 00:24:14;;;;;;;1.83;1.00;;;;;;;;;;5001879;28;20042;-55
2022/09/28 00:26:43;;;;;;;1.88;1.25;;;;;;;;;;5012381;28;20054;-54
2022/09/28 00:29:16;;;;;;;2.28;1.00;;;;;;;;;;5012021;28;20454;-54
2022/09/28 00:31:47;;;;;;;2.15;1.25;;;;;;;;;;4996857;28;20058;-54
2022/09/28 00:34:18;;;;;;;2.00;1.02;;;;;;;;;;4991883;28;20150;-55
2022/09/28 00:36:51;;;;;;;2.55;1.10;;;;;;;;;;5002755;28;20116;-52
2022/09/28 00:39:19;;;;;;;2.47;1.42;;;;;;;;;;5011461;28;20054;-54
2022/09/28 00:41:47;;;;;;;3.33;1.48;;;;;;;;;;5011772;28;20057;-54
2022/09/28 00:44:32;;;;;;;2.63;1.50;;;;;;;;;;5002985;28;20042;-53
2022/09/28 00:47:05;;;;;;;2.95;1.67;;;;;;;;;;5006370;28;20057;-52
2022/09/28 00:49:32;;;;;;;2.17;1.15;;;;;;;;;;5010140;28;20046;-54
2022/09/28 00:52:04;;;;;;;2.45;1.50;;;;;;;;;;4998678;28;20065;-55
2022/09/28 00:54:30;;;;;;;2.35;1.02;;;;;;;;;;5013318;28;20085;-54
2022/09/28 00:57:00;;;;;;;2.13;1.02;;;;;;;;;;5005823;28;20062;-55
2022/09/28 00:59:28;;;;;;;2.13;1.27;;;;;;;;;;5015502;28;20153;-53
2022/09/28 01:01:58;;;;;;;3.17;1.48;;;;;;;;;;5014714;28;20406;-54
2022/09/28 01:04:25;;;;;;;3.13;1.40;;;;;;;;;;4995836;28;20042;-54
2022/09/28 01:06:54;;;;;;;2.22;1.42;;;;;;;;;;4995860;28;20561;-54
2022/09/28 01:09:23;;;;;;;2.50;1.50;;;;;;;;;;4997345;28;20046;-55
2022/09/28 01:11:51;;;;;;;3.03;1.33;;;;;;;;;;5014979;28;20058;-54
2022/09/28 01:14:17;;;;;;;2.97;1.60;;;;;;;;;;5015233;28;20461;-53
2022/09/28 01:16:49;;;;;;;2.35;1.27;;;;;;;;;;5015441;28;20046;-54
2022/09/28 01:19:24;;;;;;;2.03;1.42;;;;;;;;;;5012364;28;20463;-51
2022/09/28 01:21:52;;;;;;;2.08;1.45;;;;;;;;;;4995806;28;20076;-55
2022/09/28 01:24:30;;;;;;;2.55;1.20;;;;;;;;;;4997238;28;20055;-54
2022/09/28 01:27:02;;;;;;;1.98;1.08;;;;;;;;;;5005790;28;20072;-53
2022/09/28 01:29:34;;;;;;;2.33;1.15;;;;;;;;;;5014971;28;20045;-52
2022/09/28 01:32:02;;;;;;;2.55;1.30;;;;;;;;;;5015235;28;20072;-54
2022/09/28 01:34:31;;;;;;;2.90;1.40;;;;;;;;;;5015082;28;20049;-55
2022/09/28 01:37:01;;;;;;;3.20;1.52;;;;;;;;;;5009640;28;20050;-55
2022/09/28 01:39:30;;;;;;;2.38;1.10;;;;;;;;;;5014791;28;20474;-55
2022/09/28 01:41:58;;;;;;;3.22;1.60;;;;;;;;;;5013609;28;20061;-54
2022/09/28 01:44:27;;;;;;;3.67;1.60;;;;;;;;;;5014373;28;20382;-55
2022/09/28 01:46:54;;;;;;;1.73;1.10;;;;;;;;;;5001249;28;20068;-55
2022/09/28 01:49:21;;;;;;;3.65;1.58;;;;;;;;;;5015310;28;20112;-52
2022/09/28 01:51:50;;;;;;;2.08;1.05;;;;;;;;;;5016642;28;20058;-55
2022/09/28 01:54:18;;;;;;;3.50;0.98;;;;;;;;;;5005027;28;20479;-51
2022/09/28 01:56:46;;;;;;;3.30;1.30;;;;;;;;;;5006676;28;20065;-53
2022/09/28 01:59:22;;;;;;;3.13;1.30;;;;;;;;;;4995265;28;20050;-54
2022/09/28 02:01:52;;;;;;;2.50;1.20;;;;;;;;;;4998571;28;20079;-54
2022/09/28 02:04:20;;;;;;;2.60;1.50;;;;;;;;;;5000961;28;20057;-53
2022/09/28 02:06:50;;;;;;;2.15;1.20;;;;;;;;;;4999813;28;20391;-54
2022/09/28 02:09:20;;;;;;;2.65;1.33;;;;;;;;;;4995332;28;20071;-55
2022/09/28 02:11:49;;;;;;;4.05;1.48;;;;;;;;;;5004637;28;20422;-55
2022/09/28 02:14:17;;;;;;;2.88;1.00;;;;;;;;;;4995107;28;20046;-54
2022/09/28 02:16:44;;;;;;;2.55;1.35;;;;;;;;;;5006746;28;20064;-52
2022/09/28 02:19:15;;;;;;;2.00;1.23;;;;;;;;;;5014666;28;20077;-52
2022/09/28 02:21:43;;;;;;;2.78;1.20;;;;;;;;;;5013921;28;20058;-54
2022/09/28 02:24:13;;;;;;;3.28;1.52;;;;;;;;;;5014453;28;20050;-55
2022/09/28 02:26:41;;;;;;;3.58;1.60;;;;;;;;;;5014678;28;20058;-53
2022/09/28 02:29:10;;;;;;;1.90;1.15;;;;;;;;;;5010938;28;20061;-54
2022/09/28 02:31:37;;;;;;;2.83;1.42;;;;;;;;;;4999464;28;20054;-55
2022/09/28 02:34:03;;;;;;;3.70;1.10;;;;;;;;;;4995679;28;20054;-55
2022/09/28 02:36:31;;;;;;;3.17;1.23;;;;;;;;;;5013730;28;20053;-55
2022/09/28 02:38:57;;;;;;;2.30;1.30;;;;;;;;;;5014339;28;20046;-55
2022/09/28 02:41:33;;;;;;;3.28;1.45;;;;;;;;;;5013522;28;20061;-51
2022/09/28 02:44:03;;;;;;;3.47;1.50;;;;;;;;;;5001529;28;20116;-55
2022/09/28 02:46:32;;;;;;;2.75;1.60;;;;;;;;;;5007534;28;20058;-55
2022/09/28 02:49:06;;;;;;;4.35;1.55;;;;;;;;;;5000041;28;20440;-55
2022/09/28 02:51:38;;;;;;;3.17;1.40;;;;;;;;;;4998007;28;20134;-55
2022/09/28 02:54:21;;;;;;;4.63;1.50;;;;;;;;;;5006180;28;20065;-54
2022/09/28 02:56:56;;;;;;;3.45;1.67;;;;;;;;;;4994184;28;20058;-51
2022/09/28 02:59:32;;;;;;;3.33;1.38;;;;;;;;;;5003564;28;20068;-51
2022/09/28 03:02:01;;;;;;;5.10;1.85;;;;;;;;;;4996873;28;20046;-54
2022/09/28 03:04:30;;;;;;;4.00;1.70;;;;;;;;;;4994060;28;20058;-52
2022/09/28 03:07:00;;;;;;;4.07;1.70;;;;;;;;;;4993571;28;20379;-54
2022/09/28 03:09:29;;;;;;;3.17;1.45;;;;;;;;;;4994214;28;20054;-53
2022/09/28 03:11:58;;;;;;;3.08;1.67;;;;;;;;;;5004323;28;20045;-54
2022/09/28 03:14:25;;;;;;;5.63;2.63;;;;;;;;;;5013689;28;20161;-52
2022/09/28 03:16:51;;;;;;;4.07;1.98;;;;;;;;;;5013124;28;20046;-54
2022/09/28 03:19:20;;;;;;;3.33;2.00;;;;;;;;;;5012987;28;20053;-53
2022/09/28 03:21:46;;;;;;;5.32;2.38;;;;;;;;;;5013354;28;20054;-54
2022/09/28 03:24:13;;;;;;;3.20;1.67;;;;;;;;;;5013289;28;20050;-54
2022/09/28 03:26:40;;;;;;;4.45;1.75;;;;;;;;;;5013309;28;20085;-55
2022/09/28 03:29:06;;;;;;;3.80;1.80;;;;;;;;;;5012625;28;20108;-55
2022/09/28 03:31:33;;;;;;;4.15;1.80;;;;;;;;;;5013317;28;20046;-51
2022/09/28 03:34:00;;;;;;;4.78;2.00;;;;;;;;;;5012598;28;20462;-53
2022/09/28 03:36:26;;;;;;;3.42;1.80;;;;;;;;;;5011568;28;20057;-54
2022/09/28 03:38:53;;;;;;;4.00;2.03;;;;;;;;;;5013231;28;20053;-54
2022/09/28 03:41:21;;;;;;;4.38;1.90;;;;;;;;;;5012404;28;20132;-55
2022/09/28 03:43:47;;;;;;;4.53;2.17;;;;;;;;;;5012935;28;20390;-54
2022/09/28 03:46:14;;;;;;;3.25;1.63;;;;;;;;;;5012458;28;20041;-54
2022/09/28 03:48:40;;;;;;;3.92;2.08;;;;;;;;;;5012779;28;20073;-54
2022/09/28 03:51:08;;;;;;;7.38;2.70;;;;;;;;;;4999243;28;20058;-54
2022/09/28 03:53:35;;;;;;;5.03;2.67;;;;;;;;;;5007712;28;20474;-54
2022/09/28 03:56:05;;;;;;;3.90;2.10;;;;;;;;;;4993492;28;20050;-52
2022/09/28 03:58:32;;;;;;;3.70;2.28;;;;;;;;;;4995332;28;20050;-55
2022/09/28 04:01:02;;;;;;;5.72;2.10;;;;;;;;;;5003863;28;20057;-51
2022/09/28 04:03:29;;;;;;;4.50;2.40;;;;;;;;;;4994616;28;20078;-51
2022/09/28 04:05:57;;;;;;;5.60;2.28;;;;;;;;;;5012237;28;20046;-53
2022/09/28 04:08:24;;;;;;;5.28;2.83;;;;;;;;;;5012429;28;20841;-54
2022/09/28 04:10:50;;;;;;;5.75;3.17;;;;;;;;;;4998940;28;20641;-51
2022/09/28 04:13:16;;;;;;;5.35;2.67;;;;;;;;;;5012243;28;20054;-55
2022/09/28 04:15:51;;;;;;;5.38;2.80;;;;;;;;;;5011781;28;20045;-55
2022/09/28 04:18:17;;;;;;;6.22;2.97;;;;;;;;;;5012446;28;20378;-52
2022/09/28 04:20:46;;;;;;;4.38;2.70;;;;;;;;;;5008789;28;20045;-54
2022/09/28 04:23:13;;;;;;;6.95;3.55;;;;;;;;;;5003020;28;20058;-51
2022/09/28 04:25:40;;;;;;;6.90;2.95;;;;;;;;;;5015993;28;20393;-55
2022/09/28 04:30:51;;;;;;;5.43;2.80;;;;;;;;;;4996922;28;20132;-55
2022/09/28 04:33:17;;;;;;;6.68;2.78;;;;;;;;;;5005428;28;20054;-54
2022/09/28 04:35:43;;;;;;;6.40;3.25;;;;;;;;;;5004500;28;20056;-52
2022/09/28 04:38:10;;;;;;;7.68;3.03;;;;;;;;;;5016649;28;20069;-55
2022/09/28 04:40:36;;;;;;;5.45;2.75;;;;;;;;;;5016473;28;20061;-55
2022/09/28 04:43:02;;;;;;;7.05;3.20;;;;;;;;;;5015182;28;20665;-52
2022/09/28 04:45:28;;;;;;;7.28;3.35;;;;;;;;;;5004345;28;20050;-51
2022/09/28 04:47:56;;;;;;;7.55;3.65;;;;;;;;;;5011201;28;20053;-52
2022/09/28 04:50:22;;;;;;;7.20;3.42;;;;;;;;;;5004380;28;20050;-54
2022/09/28 04:52:49;;;;;;;6.63;3.85;;;;;;;;;;5013555;28;20050;-54
2022/09/28 04:55:15;;;;;;;7.72;3.85;;;;;;;;;;4996670;28;20443;-51
2022/09/28 04:57:42;;;;;;;9.63;4.43;;;;;;;;;;4995281;28;20137;-54
2022/09/28 05:00:09;;;;;;;8.27;3.97;;;;;;;;;;5008232;28;20050;-55
2022/09/28 05:02:35;;;;;;;7.65;4.25;;;;;;;;;;4995038;28;20129;-54
2022/09/28 05:05:03;;;;;;;5.82;3.38;;;;;;;;;;4997762;28;20062;-54
2022/09/28 05:07:30;;;;;;;8.48;3.80;;;;;;;;;;5014633;28;20065;-53
2022/09/28 05:09:56;;;;;;;8.32;4.35;;;;;;;;;;5015229;28;20116;-50
2022/09/28 05:12:22;;;;;;;8.73;4.57;;;;;;;;;;5014181;28;20606;-50
2022/09/28 05:14:48;;;;;;;9.77;4.85;;;;;;;;;;5012086;28;20046;-50
2022/09/28 05:17:15;;;;;;;6.72;4.15;;;;;;;;;;5012939;28;20041;-49
2022/09/28 05:19:41;;;;;;;10.27;4.82;;;;;;;;;;5013519;28;20064;-50
2022/09/28 05:22:13;;;;;;;7.75;3.97;;;;;;;;;;5012944;28;20050;-51
2022/09/28 05:24:39;;;;;;;9.30;4.38;;;;;;;;;;5013037;28;20061;-50
2022/09/28 05:27:06;;;;;;;9.15;4.70;;;;;;;;;;5013396;28;20383;-53
2022/09/28 05:29:32;;;;;;;9.35;4.65;;;;;;;;;;4999669;28;20092;-50
2022/09/28 05:32:00;;;;;;;9.73;4.28;;;;;;;;;;5013536;28;20053;-51
2022/09/28 05:34:27;;;;;;;10.20;3.75;;;;;;;;;;5012734;28;20128;-49
2022/09/28 05:36:53;;;;;;;7.40;3.97;;;;;;;;;;5013486;28;20133;-50
2022/09/28 05:39:21;;;;;;;9.10;4.22;;;;;;;;;;5000130;28;20491;-50
2022/09/28 05:41:47;;;;;;;5.90;3.35;;;;;;;;;;5011462;28;20056;-50
2022/09/28 05:44:13;;;;;;;4.75;3.03;;;;;;;;;;5001526;28;20058;-50
2022/09/28 05:46:40;;;;;;;6.97;3.07;;;;;;;;;;4975503;28;1077481;-51
2022/09/28 05:49:06;;;;;;;8.52;3.17;;;;;;;;;;5004065;28;20380;-51
2022/09/28 05:51:32;;;;;;;6.93;3.15;;;;;;;;;;5010798;28;20054;-50
2022/09/28 05:53:58;;;;;;;6.53;3.22;;;;;;;;;;5015411;28;20053;-50
2022/09/28 05:56:29;;;;;;;7.47;3.50;;;;;;;;;;5001819;28;20043;-50
2022/09/28 05:58:57;;;;;;;5.38;2.97;;;;;;;;;;5013981;28;20068;-50
2022/09/28 06:01:23;;;;;;;4.18;2.55;;;;;;;;;;5015068;28;20076;-50
2022/09/28 06:03:50;;;;;;;4.72;2.53;;;;;;;;;;5014727;28;20104;-50
2022/09/28 06:06:16;;;;;;;4.72;2.20;;;;;;;;;;5015375;28;20046;-50
2022/09/28 06:08:42;;;;;;;7.00;2.90;;;;;;;;;;5014482;28;20831;-50
2022/09/28 06:11:11;;;;;;;5.35;2.58;;;;;;;;;;5015102;28;20045;-51
2022/09/28 06:13:39;;;;;;;5.20;2.50;;;;;;;;;;5014331;28;20049;-52
2022/09/28 06:16:06;;;;;;;4.25;2.22;;;;;;;;;;5014451;28;20462;-52
2022/09/28 06:18:32;;;;;;;4.07;2.50;;;;;;;;;;5014955;28;20050;-52
2022/09/28 06:20:59;;;;;;;4.00;2.08;;;;;;;;;;5014418;28;20054;-52
2022/09/28 06:23:25;;;;;;;5.53;2.17;;;;;;;;;;5014562;28;20060;-51
2022/09/28 06:25:51;;;;;;;3.90;1.98;;;;;;;;;;4997388;28;20066;-54
2022/09/28 06:28:20;;;;;;;4.93;2.33;;;;;;;;;;5004564;28;20065;-51
2022/09/28 06:30:47;;;;;;;4.50;2.72;;;;;;;;;;5013971;28;20456;-53
2022/09/28 06:33:15;;;;;;;4.57;2.42;;;;;;;;;;5006247;28;20053;-52
2022/09/28 06:35:41;;;;;;;4.43;2.20;;;;;;;;;;5008982;28;20085;-53
2022/09/28 06:38:07;;;;;;;3.92;2.15;;;;;;;;;;5008049;28;20049;-51
2022/09/28 06:40:34;;;;;;;6.10;2.83;;;;;;;;;;5007587;28;20057;-50
2022/09/28 06:43:01;;;;;;;6.60;2.90;;;;;;;;;;5014111;28;20053;-49
2022/09/28 06:45:28;;;;;;;8.15;3.35;;;;;;;;;;5014288;28;20061;-50
2022/09/28 06:47:57;;;;;;;7.10;3.20;;;;;;;;;;5013042;28;20061;-50
2022/09/28 06:50:24;;;;;;;7.00;2.97;;;;;;;;;;5014409;28;20050;-50
2022/09/28 06:52:51;;;;;;;6.40;2.67;;;;;;;;;;5012444;28;20425;-50
2022/09/28 06:55:17;;;;;;;9.35;2.42;;;;;;;;;;5004026;28;20168;-54
2022/09/28 06:57:43;;;;;;;8.63;2.90;;;;;;;;;;5013845;28;20057;-50
2022/09/28 07:00:13;;;;;;;10.25;2.78;;;;;;;;;;5010255;28;20046;-50
2022/09/28 07:02:39;;;;;;;4.65;2.30;;;;;;;;;;5005468;28;20683;-49
2022/09/28 07:05:08;;;;;;;4.97;1.83;;;;;;;;;;5003964;28;20041;-50
2022/09/28 07:07:35;;;;;;;4.30;1.75;;;;;;;;;;5004747;28;20054;-50
2022/09/28 07:10:01;;;;;;;6.25;1.98;;;;;;;;;;5004179;28;20347;-50
2022/09/28 07:12:29;;;;;;;9.25;2.58;;;;;;;;;;5001508;28;20081;-50
2022/09/28 07:14:56;;;;;;;4.60;1.90;;;;;;;;;;5004000;28;20054;-52
2022/09/28 07:17:22;;;;;;;6.10;2.25;;;;;;;;;;5001712;28;20057;-54
2022/09/28 07:19:51;;;;;;;5.03;2.30;;;;;;;;;;5001779;28;20096;-53
2022/09/28 07:22:19;;;;;;;8.52;2.70;;;;;;;;;;5006998;28;20057;-52
2022/09/28 07:24:45;;;;;;;6.25;2.83;;;;;;;;;;5008994;28;20046;-50
2022/09/28 07:27:12;;;;;;;5.82;3.30;;;;;;;;;;5012558;28;20069;-50
2022/09/28 07:29:38;;;;;;;4.85;2.25;;;;;;;;;;5012636;28;20432;-52
2022/09/28 07:32:04;;;;;;;5.47;2.25;;;;;;;;;;5007203;28;20050;-50
2022/09/28 07:34:38;;;;;;;8.57;3.17;;;;;;;;;;5013846;28;20060;-50
2022/09/28 07:37:05;;;;;;;9.25;2.30;;;;;;;;;;5013415;28;20056;-49
2022/09/28 07:41:10;;;;;;;5.90;2.38;;;;;;;;;;5012957;28;20149;-50
2022/09/28 07:42:19;;;;;;;6.95;2.17;;;;;;;;;;5002624;28;20054;-51
2022/09/28 07:44:45;;;;;;;4.53;1.85;;;;;;;;;;5007125;28;20144;-50
2022/09/28 07:47:12;;;;;;;5.30;2.08;;;;;;;;;;5008246;28;20050;-52
2022/09/28 07:49:38;;;;;;;5.95;2.78;;;;;;;;;;5013232;28;20464;-50
2022/09/28 07:52:04;;;;;;;11.55;2.67;;;;;;;;;;5005839;28;20056;-50
2022/09/28 07:54:33;;;;;;;4.72;2.10;;;;;;;;;;5013031;28;20053;-50
2022/09/28 07:56:59;;;;;;;4.13;2.25;;;;;;;;;;5002781;28;20053;-50
2022/09/28 07:59:26;;;;;;;6.90;3.33;;;;;;;;;;5010868;28;20056;-51
2022/09/28 08:01:52;;;;;;;6.38;3.47;;;;;;;;;;5011061;28;20058;-53
2022/09/28 08:04:19;;;;;;;7.10;3.40;;;;;;;;;;5004937;28;20054;-51
2022/09/28 08:06:47;;;;;;;7.20;3.40;;;;;;;;;;5013246;28;20390;-53
2022/09/28 08:09:15;;;;;;;6.18;3.15;;;;;;;;;;5006213;28;20053;-51
2022/09/28 08:11:43;;;;;;;8.07;3.40;;;;;;;;;;5006620;28;20060;-53
2022/09/28 08:14:10;;;;;;;5.07;2.70;;;;;;;;;;5008917;28;20090;-50
2022/09/28 08:16:37;;;;;;;5.90;3.15;;;;;;;;;;5012728;28;20506;-53
2022/09/28 08:19:03;;;;;;;6.57;3.90;;;;;;;;;;5001204;28;20112;-50
2022/09/28 08:21:43;;;;;;;6.85;3.40;;;;;;;;;;5002725;28;20046;-50
2022/09/28 08:24:10;;;;;;;7.38;3.58;;;;;;;;;;5001410;28;20359;-50
2022/09/28 08:26:36;;;;;;;5.70;3.28;;;;;;;;;;5007245;28;20065;-53
2022/09/28 08:29:04;;;;;;;8.40;4.63;;;;;;;;;;4999005;28;20465;-51
2022/09/28 08:31:30;;;;;;;9.90;4.78;;;;;;;;;;5013770;28;20060;-50
2022/09/28 08:33:57;;;;;;;8.52;3.72;;;;;;;;;;5013212;28;20088;-50
2022/09/28 08:36:23;;;;;;;6.35;3.85;;;;;;;;;;5004949;28;20049;-53
2022/09/28 08:38:50;;;;;;;7.28;3.17;;;;;;;;;;5004684;28;20085;-53
2022/09/28 08:41:18;;;;;;;8.55;3.72;;;;;;;;;;5011939;28;20042;-54
2022/09/28 08:43:48;;;;;;;8.98;4.30;;;;;;;;;;5005760;28;20061;-54
2022/09/28 08:46:21;;;;;;;7.97;4.00;;;;;;;;;;4998923;28;20078;-53
2022/09/28 08:48:53;;;;;;;6.45;3.80;;;;;;;;;;5001976;28;20069;-50
2022/09/28 08:51:22;;;;;;;9.32;4.05;;;;;;;;;;5010179;28;20599;-52
2022/09/28 08:53:53;;;;;;;7.63;4.43;;;;;;;;;;5006945;28;20054;-53
2022/09/28 08:56:24;;;;;;;6.00;3.58;;;;;;;;;;4993833;28;20053;-52
2022/09/28 08:58:52;;;;;;;7.63;3.85;;;;;;;;;;4993959;28;20077;-50
2022/09/28 09:01:21;;;;;;;5.47;3.35;;;;;;;;;;5012435;28;20046;-53
2022/09/28 09:03:48;;;;;;;6.60;3.70;;;;;;;;;;4995735;28;20525;-52
2022/09/28 09:06:21;;;;;;;9.13;4.53;;;;;;;;;;5002785;28;20363;-50
2022/09/28 09:08:56;;;;;;;12.05;4.55;;;;;;;;;;4996627;28;20107;-52
2022/09/28 09:11:28;;;;;;;17.52;4.60;;;;;;;;;;5004512;28;20046;-54
2022/09/28 09:14:07;;;;;;;6.72;3.55;;;;;;;;;;5015886;28;20041;-51
2022/09/28 09:16:39;;;;;;;6.43;3.85;;;;;;;;;;5009574;28;20150;-50
2022/09/28 09:19:14;;;;;;;6.47;3.30;;;;;;;;;;5005174;28;20386;-50
2022/09/28 09:21:41;;;;;;;6.72;3.90;;;;;;;;;;5008224;28;20065;-50
2022/09/28 09:24:15;;;;;;;7.18;4.53;;;;;;;;;;5013404;28;20455;-54
2022/09/28 09:26:41;;;;;;;6.82;3.47;;;;;;;;;;5000062;28;20057;-53
2022/09/28 09:29:27;;;;;;;5.70;3.47;;;;;;;;;;5002247;28;20050;-50
2022/09/28 09:31:58;;;;;;;;;;;;;;;;;;5005738;28;20054;-52
2022/09/28 09:34:34;;;;;;;7.55;2.83;;;;;;;;;;5005113;28;19922;-53
2022/09/28 09:37:15;;;;;;;5.25;2.95;;;;;;;;;;5008077;28;20042;-53
2022/09/28 09:39:46;;;;;;;5.43;2.67;;;;;;;;;;5005501;28;20118;-51
2022/09/28 09:42:21;;;;;;;7.78;3.55;;;;;;;;;;5000927;28;20046;-50
2022/09/28 09:44:59;;;;;;;6.82;3.58;;;;;;;;;;5008366;28;20053;-53
2022/09/28 09:47:30;;;;;;;5.85;3.10;;;;;;;;;;5014639;28;20054;-53
2022/09/28 09:50:00;;;;;;;7.53;2.85;;;;;;;;;;5000268;28;20057;-53
2022/09/28 09:52:29;;;;;;;4.25;2.53;;;;;;;;;;5007213;28;20446;-50
2022/09/28 09:54:58;;;;;;;5.68;2.80;;;;;;;;;;5003552;28;20054;-50
2022/09/28 09:57:26;;;;;;;8.30;2.92;;;;;;;;;;5009037;28;20057;-52
2022/09/28 09:59:52;;;;;;;6.90;3.08;;;;;;;;;;5015744;28;20490;-53
2022/09/28 10:02:22;;;;;;;3.60;2.22;;;;;;;;;;5016535;28;20054;-50
2022/09/28 10:04:49;;;;;;;3.67;2.13;;;;;;;;;;5016931;28;20061;-52
2022/09/28 10:07:20;;;;;;;7.30;2.38;;;;;;;;;;4998475;28;20054;-50
2022/09/28 10:09:48;;;;;;;5.20;2.70;;;;;;;;;;4997413;28;20065;-51
2022/09/28 10:12:15;;;;;;;6.03;2.80;;;;;;;;;;4997455;28;20061;-52
2022/09/28 10:14:42;;;;;;;3.85;2.33;;;;;;;;;;4997490;28;20108;-51
2022/09/28 10:17:10;;;;;;;7.20;2.83;;;;;;;;;;5010025;28;20073;-53
2022/09/28 10:19:36;;;;;;;4.10;2.10;;;;;;;;;;5015100;28;20458;-51
2022/09/28 10:22:03;;;;;;;5.47;3.00;;;;;;;;;;5014849;28;20053;-53
2022/09/28 10:24:33;;;;;;;4.78;2.30;;;;;;;;;;5017120;28;20061;-53
2022/09/28 10:27:04;;;;;;;6.30;3.47;;;;;;;;;;5016334;28;20056;-51
2022/09/28 10:29:35;;;;;;;8.02;3.72;;;;;;;;;;5015842;28;20052;-50
2022/09/28 10:32:02;;;;;;;7.68;3.70;;;;;;;;;;5016184;28;20058;-54
2022/09/28 10:34:30;;;;;;;6.50;3.83;;;;;;;;;;5016646;28;20049;-53
2022/09/28 10:36:59;;;;;;;5.70;3.08;;;;;;;;;;5016613;28;20049;-51
2022/09/28 10:39:28;;;;;;;8.00;3.80;;;;;;;;;;5010577;28;20049;-53
2022/09/28 10:41:58;;;;;;;8.18;4.00;;;;;;;;;;5016572;28;20085;-53
2022/09/28 10:44:26;;;;;;;6.32;3.70;;;;;;;;;;5015970;28;20145;-54
2022/09/28 10:46:55;;;;;;;5.10;3.33;;;;;;;;;;5016205;28;20100;-53
2022/09/28 10:49:23;;;;;;;4.75;2.55;;;;;;;;;;5015861;28;20450;-54
2022/09/28 10:51:52;;;;;;;4.50;3.00;;;;;;;;;;5015599;28;20057;-53
2022/09/28 10:54:19;;;;;;;3.92;2.38;;;;;;;;;;5006684;28;20494;-50
2022/09/28 10:56:47;;;;;;;3.17;2.10;;;;;;;;;;4998581;28;20057;-51
2022/09/28 10:59:30;;;;;;;4.10;2.40;;;;;;;;;;5002355;28;20048;-50
2022/09/28 11:01:58;;;;;;;3.22;2.10;;;;;;;;;;5016220;28;20050;-52
2022/09/28 11:04:26;;;;;;;4.68;2.22;;;;;;;;;;5016383;28;20050;-51
2022/09/28 11:06:55;;;;;;;4.05;2.15;;;;;;;;;;5016646;28;20053;-50
2022/09/28 11:09:26;;;;;;;3.22;2.22;;;;;;;;;;5016274;28;20534;-50
2022/09/28 11:11:52;;;;;;;4.03;2.28;;;;;;;;;;5001856;28;20095;-50
2022/09/28 11:14:24;;;;;;;4.55;2.33;;;;;;;;;;5012734;28;20054;-50
2022/09/28 11:17:14;;;;;;;3.85;2.47;;;;;;;;;;5010148;28;20061;-54
2022/09/28 11:19:41;;;;;;;5.22;2.30;;;;;;;;;;5004936;28;20485;-51
2022/09/28 11:22:20;;;;;;;4.38;2.40;;;;;;;;;;5016019;28;20129;-51
2022/09/28 11:24:46;;;;;;;4.53;2.42;;;;;;;;;;5015973;28;20157;-53
2022/09/28 11:27:20;;;;;;;3.03;2.13;;;;;;;;;;5000958;28;20629;-53
2022/09/28 11:29:53;;;;;;;2.40;1.70;;;;;;;;;;5005516;28;20047;-53
2022/09/28 11:32:23;;;;;;;3.55;2.00;;;;;;;;;;4995589;28;20065;-52
2022/09/28 11:34:51;;;;;;;2.70;1.70;;;;;;;;;;4995795;28;20499;-53
2022/09/28 11:37:30;;;;;;;3.03;1.83;;;;;;;;;;5003548;28;20053;-50
2022/09/28 11:40:00;;;;;;;3.65;1.95;;;;;;;;;;5011418;28;20076;-50
2022/09/28 11:42:32;;;;;;;3.75;2.10;;;;;;;;;;5011828;28;20072;-49
2022/09/28 11:45:04;;;;;;;2.70;1.88;;;;;;;;;;5010848;28;20061;-50
2022/09/28 11:47:43;;;;;;;2.70;1.50;;;;;;;;;;5014109;28;20068;-49
2022/09/28 11:50:17;;;;;;;3.05;1.58;;;;;;;;;;5013475;28;20112;-50
2022/09/28 11:52:46;;;;;;;2.58;1.73;;;;;;;;;;5011799;28;20355;-50
2022/09/28 11:55:15;;;;;;;1.65;1.30;;;;;;;;;;5011851;28;20050;-50
2022/09/28 11:57:44;;;;;;;2.65;1.05;;;;;;;;;;5013204;28;20493;-50
2022/09/28 12:00:13;;;;;;;4.55;1.40;;;;;;;;;;5013000;28;20343;-50
2022/09/28 12:02:45;;;;;;;3.38;1.27;;;;;;;;;;5013029;28;20060;-50
2022/09/28 12:05:13;;;;;;;1.30;0.93;;;;;;;;;;5013289;28;20057;-51
2022/09/28 12:07:43;;;;;;;1.90;0.93;;;;;;;;;;5013319;28;20478;-53
2022/09/28 12:10:11;;;;;;;2.00;0.90;;;;;;;;;;5013622;28;20058;-50
2022/09/28 12:12:39;;;;;;;6.78;1.10;;;;;;;;;;5012469;28;20054;-50
2022/09/28 12:15:14;;;;;;;1.88;0.90;;;;;;;;;;5013776;28;20064;-50
2022/09/28 12:17:43;;;;;;;2.60;0.90;;;;;;;;;;5012691;28;20042;-51
2022/09/28 12:20:13;;;;;;;2.22;1.02;;;;;;;;;;5014838;28;20293;-52
2022/09/28 12:22:42;;;;;;;3.40;0.90;;;;;;;;;;5014090;28;20054;-53
2022/09/28 12:25:12;;;;;;;2.13;1.02;;;;;;;;;;5014216;28;20371;-50
2022/09/28 12:27:41;;;;;;;2.03;0.70;;;;;;;;;;5014407;28;20050;-54
2022/09/28 12:30:13;;;;;;;1.88;0.93;;;;;;;;;;5013732;28;20065;-54
2022/09/28 12:32:42;;;;;;;2.83;1.30;;;;;;;;;;5011034;28;20078;-53
2022/09/28 12:35:14;;;;;;;2.85;1.08;;;;;;;;;;5014570;28;20050;-52
2022/09/28 12:37:47;;;;;;;1.48;0.88;;;;;;;;;;5010008;28;20108;-53
2022/09/28 12:40:31;;;;;;;2.60;1.00;;;;;;;;;;5012182;28;20120;-51
2022/09/28 12:43:06;;;;;;;3.20;0.80;;;;;;;;;;5008988;28;20057;-51
2022/09/28 12:45:52;;;;;;;2.17;1.13;;;;;;;;;;5013557;28;20530;-52
2022/09/28 12:48:25;;;;;;;1.77;0.80;;;;;;;;;;5006800;28;20062;-50
2022/09/28 12:51:00;;;;;;;3.70;1.00;;;;;;;;;;5008290;28;20046;-54
2022/09/28 12:53:42;;;;;;;2.85;1.45;;;;;;;;;;5004169;28;20054;-51
2022/09/28 12:56:12;;;;;;;4.32;1.05;;;;;;;;;;5005469;28;20177;-51
2022/09/28 12:58:47;;;;;;;2.20;1.00;;;;;;;;;;5016344;28;20096;-51
2022/09/28 13:01:21;;;;;;;3.15;1.10;;;;;;;;;;5010504;28;20057;-50
2022/09/28 13:03:57;;;;;;;1.77;0.90;;;;;;;;;;5015814;28;20053;-52
2022/09/28 13:06:35;;;;;;;3.80;1.10;;;;;;;;;;5007875;28;20081;-51
2022/09/28 13:09:14;;;;;;;2.92;1.08;;;;;;;;;;5001198;28;20042;-53
2022/09/28 13:11:43;;;;;;;1.40;1.00;;;;;;;;;;4998889;28;20072;-50
2022/09/28 13:14:21;;;;;;;2.60;0.98;;;;;;;;;;5006138;28;20111;-50
2022/09/28 13:16:51;;;;;;;2.88;1.10;;;;;;;;;;5015822;28;20057;-50
2022/09/28 13:19:21;;;;;;;2.53;0.98;;;;;;;;;;5012977;28;20053;-50
2022/09/28 13:21:54;;;;;;;1.40;0.88;;;;;;;;;;5014447;28;20548;-50
2022/09/28 13:24:25;;;;;;;1.67;0.90;;;;;;;;;;5004148;28;20065;-50
2022/09/28 13:26:55;;;;;;;2.70;0.70;;;;;;;;;;5010561;28;20100;-51
2022/09/28 13:29:22;;;;;;;2.17;1.00;;;;;;;;;;5013997;28;20529;-50
2022/09/28 13:31:50;;;;;;;2.50;0.90;;;;;;;;;;5015830;28;20060;-50
2022/09/28 13:34:19;;;;;;;3.30;1.20;;;;;;;;;;5015692;28;20065;-50
2022/09/28 13:36:45;;;;;;;2.08;0.95;;;;;;;;;;5008155;28;20402;-49
2022/09/28 13:39:30;;;;;;;2.60;0.80;;;;;;;;;;5005528;28;20046;-51
2022/09/28 13:41:59;;;;;;;1.40;0.80;;;;;;;;;;5014819;28;20053;-54
2022/09/28 13:44:36;;;;;;;2.25;1.20;;;;;;;;;;5016534;28;20054;-54
2022/09/28 13:47:06;;;;;;;1.30;0.82;;;;;;;;;;5013280;28;20058;-53
2022/09/28 13:49:51;;;;;;;4.10;0.95;;;;;;;;;;5016826;28;20054;-53
2022/09/28 13:52:27;;;;;;;2.15;1.10;;;;;;;;;;5007346;28;20233;-50
2022/09/28 13:54:59;;;;;;;1.85;1.15;;;;;;;;;;5006428;28;20050;-50
2022/09/28 13:57:30;;;;;;;1.58;0.85;;;;;;;;;;5012855;28;20054;-50
2022/09/28 14:00:11;;;;;;;2.30;0.90;;;;;;;;;;5007226;28;20045;-52
2022/09/28 14:02:40;;;;;;;2.88;1.13;;;;;;;;;;5004021;28;20058;-51
2022/09/28 14:05:27;;;;;;;12.20;1.38;;;;;;;;;;5010598;28;20493;-50
2022/09/28 14:07:58;;;;;;;2.17;1.25;;;;;;;;;;5013325;28;20050;-49
2022/09/28 14:10:44;;;;;;;3.33;1.77;;;;;;;;;;5010516;28;20088;-52
2022/09/28 14:13:12;;;;;;;2.08;1.20;;;;;;;;;;5013809;28;20060;-50
2022/09/28 14:15:40;;;;;;;3.10;0.90;;;;;;;;;;5013042;28;20057;-50
2022/09/28 14:18:14;;;;;;;3.33;1.05;;;;;;;;;;5013757;28;20202;-53
2022/09/28 14:20:42;;;;;;;1.30;0.60;;;;;;;;;;5008547;28;20058;-49
2022/09/28 14:23:16;;;;;;;1.80;0.77;;;;;;;;;;5013019;28;20056;-49
2022/09/28 14:25:44;;;;;;;1.55;0.70;;;;;;;;;;5012418;28;20046;-54
2022/09/28 14:28:24;;;;;;;1.98;0.73;;;;;;;;;;5014044;28;20050;-53
2022/09/28 14:30:56;;;;;;;1.15;0.70;;;;;;;;;;5008229;28;20661;-52
2022/09/28 14:33:25;;;;;;;1.67;0.77;;;;;;;;;;5012009;28;20053;-53
2022/09/28 14:35:55;;;;;;;1.83;0.80;;;;;;;;;;5005170;28;20541;-53
2022/09/28 14:41:12;;;;;;;;;;;;;;;;;;5009974;28;20049;-54
2022/09/28 14:43:59;;;;;;;2.50;0.88;;;;;;;;;;5010573;28;20040;-54
2022/09/28 14:46:28;;;;;;;4.30;1.58;;;;;;;;;;5009835;28;20050;-51
2022/09/28 14:48:55;;;;;;;2.65;1.00;;;;;;;;;;5013450;28;20054;-54
2022/09/28 14:51:41;;;;;;;1.75;0.90;;;;;;;;;;5008549;28;20049;-51
2022/09/28 14:54:15;;;;;;;1.88;1.00;;;;;;;;;;5011843;28;20053;-51
2022/09/28 14:56:44;;;;;;;2.08;1.00;;;;;;;;;;5006116;28;20049;-52
2022/09/28 14:59:14;;;;;;;1.95;1.05;;;;;;;;;;5011443;28;20049;-55
2022/09/28 15:01:41;;;;;;;3.15;1.67;;;;;;;;;;5010880;28;20054;-51
2022/09/28 15:04:10;;;;;;;3.67;1.80;;;;;;;;;;5007411;28;20053;-51